Time;durP1;ratioP1;P1;durP2;ratioP2;P2;SDS_P1;SDS_P2;PMS_P1;PMS_P2;Temp;Humidity;BMP_temperature;BMP_pressure;BME280_temperature;BME280_humidity;BME280_pressure;Samples;Min_cycle;Max_cycle;Signal;HPM_P1;HPM_P2
2024/03/30 00:00:49;;;;;;;0.35;0.35;;;;;;;8.12;100.00;97488.78;5057911;28;20048;-59
2024/03/30 00:03:16;;;;;;;0.30;0.30;;;;;;;8.17;100.00;97496.78;5049448;28;20130;-59
2024/03/30 00:05:43;;;;;;;0.30;0.30;;;;;;;8.29;100.00;97491.97;5057756;28;20040;-59
2024/03/30 00:08:10;;;;;;;0.30;0.30;;;;;;;8.28;100.00;97497.56;5057423;28;20119;-59
2024/03/30 00:10:37;;;;;;;0.30;0.30;;;;;;;8.40;100.00;97482.88;5060464;28;20041;-59
2024/03/30 00:13:03;;;;;;;0.30;0.30;;;;;;;8.36;100.00;97491.66;5060553;28;20090;-60
2024/03/30 00:15:31;;;;;;;0.30;0.30;;;;;;;8.49;100.00;97493.81;5053099;28;20855;-59
2024/03/30 00:17:58;;;;;;;0.30;0.30;;;;;;;8.52;100.00;97484.47;5053276;28;20047;-59
2024/03/30 00:20:25;;;;;;;0.30;0.30;;;;;;;8.49;100.00;97480.47;5052777;28;20067;-59
2024/03/30 00:22:51;;;;;;;0.30;0.30;;;;;;;8.49;100.00;97474.34;5053512;28;20166;-59
2024/03/30 00:25:20;;;;;;;0.30;0.30;;;;;;;8.51;100.00;97478.34;5056366;28;20086;-59
2024/03/30 00:27:46;;;;;;;0.30;0.30;;;;;;;8.51;100.00;97461.50;5053277;28;20049;-59
2024/03/30 00:30:14;;;;;;;0.20;0.20;;;;;;;8.55;100.00;97465.22;5055618;28;20076;-59
2024/03/30 00:32:40;;;;;;;0.30;0.30;;;;;;;8.56;100.00;97464.97;5051166;28;20551;-60
2024/03/30 00:35:07;;;;;;;0.30;0.30;;;;;;;8.56;100.00;97459.63;5060914;28;20067;-60
2024/03/30 00:37:33;;;;;;;0.30;0.30;;;;;;;8.53;100.00;97467.34;5047895;28;20193;-59
2024/03/30 00:40:00;;;;;;;0.20;0.20;;;;;;;8.61;100.00;97462.28;5045702;28;20048;-59
2024/03/30 00:42:27;;;;;;;0.28;0.28;;;;;;;8.56;100.00;97456.13;5050270;28;20730;-59
2024/03/30 00:44:55;;;;;;;0.22;0.22;;;;;;;8.64;100.00;97463.59;5033770;28;20044;-59
2024/03/30 00:47:20;;;;;;;0.28;0.28;;;;;;;8.67;100.00;97455.03;5043413;28;20049;-59
2024/03/30 00:49:48;;;;;;;0.20;0.20;;;;;;;8.62;100.00;97447.84;5051271;28;20527;-60
2024/03/30 00:52:14;;;;;;;0.30;0.30;;;;;;;8.69;100.00;97447.56;5058570;28;20136;-59
2024/03/30 00:54:41;;;;;;;0.30;0.30;;;;;;;8.58;100.00;97462.00;5048693;28;20033;-60
2024/03/30 00:57:07;;;;;;;0.30;0.30;;;;;;;8.46;100.00;97459.63;5048681;28;20614;-60
2024/03/30 00:59:36;;;;;;;0.30;0.30;;;;;;;8.44;100.00;97456.44;5057691;28;20045;-60
2024/03/30 01:02:03;;;;;;;0.20;0.20;;;;;;;8.15;100.00;97446.34;5053496;28;20048;-59
2024/03/30 01:04:30;;;;;;;0.30;0.30;;;;;;;8.07;100.00;97451.44;5046490;28;20049;-59
2024/03/30 01:06:58;;;;;;;0.20;0.20;;;;;;;8.03;100.00;97442.34;5054359;28;20558;-59
2024/03/30 01:09:25;;;;;;;0.30;0.30;;;;;;;7.93;100.00;97453.84;5056428;28;20057;-59
2024/03/30 01:11:52;;;;;;;0.20;0.20;;;;;;;7.64;100.00;97435.72;5051072;28;20414;-60
2024/03/30 01:14:22;;;;;;;0.30;0.30;;;;;;;7.75;100.00;97431.19;5049368;28;20049;-60
2024/03/30 01:16:51;;;;;;;0.30;0.30;;;;;;;7.78;100.00;97441.31;5048137;28;20051;-59
2024/03/30 01:19:18;;;;;;;0.20;0.20;;;;;;;7.97;100.00;97446.91;5083355;28;20076;-59
2024/03/30 01:21:47;;;;;;;0.30;0.30;;;;;;;7.98;100.00;97448.50;5046523;28;20069;-59
2024/03/30 01:24:15;;;;;;;0.30;0.30;;;;;;;7.86;100.00;97439.97;5053468;28;20361;-60
2024/03/30 01:26:44;;;;;;;0.30;0.30;;;;;;;7.67;100.00;97427.19;5044854;28;20132;-59
2024/03/30 01:29:11;;;;;;;0.30;0.30;;;;;;;7.51;100.00;97429.06;5046811;28;20036;-60
2024/03/30 01:31:37;;;;;;;0.40;0.40;;;;;;;7.73;100.00;97435.97;5049950;28;20582;-59
2024/03/30 01:34:06;;;;;;;0.30;0.30;;;;;;;7.70;100.00;97431.19;5046723;28;20053;-60
2024/03/30 01:36:33;;;;;;;0.22;0.22;;;;;;;7.61;100.00;97430.91;5046973;28;20041;-59
2024/03/30 01:39:00;;;;;;;0.30;0.30;;;;;;;7.50;100.00;97416.78;5055166;28;20037;-59
2024/03/30 01:41:26;;;;;;;0.20;0.20;;;;;;;7.49;100.00;97422.41;5052319;28;20525;-59
2024/03/30 01:43:53;;;;;;;0.30;0.30;;;;;;;7.48;100.00;97424.25;5054022;28;20102;-59
2024/03/30 01:46:19;;;;;;;0.20;0.20;;;;;;;7.37;100.00;97427.97;5051697;28;20045;-59
2024/03/30 01:48:46;;;;;;;0.30;0.30;;;;;;;7.12;100.00;97424.22;5052366;28;20051;-59
2024/03/30 01:51:14;;;;;;;0.25;0.25;;;;;;;7.05;100.00;97422.88;5053200;28;20423;-59
2024/03/30 01:53:41;;;;;;;0.30;0.30;;;;;;;7.03;100.00;97423.13;5051492;28;20495;-60
2024/03/30 01:56:07;;;;;;;0.30;0.30;;;;;;;7.12;100.00;97418.88;5043598;28;20138;-59
2024/03/30 01:58:34;;;;;;;0.30;0.30;;;;;;;6.86;100.00;97415.38;5051280;28;20048;-59
2024/03/30 02:01:00;;;;;;;0.38;0.38;;;;;;;7.01;100.00;97409.25;5056061;28;20142;-59
2024/03/30 02:03:27;;;;;;;0.40;0.40;;;;;;;7.22;100.00;97409.31;5048771;28;20522;-60
2024/03/30 02:05:53;;;;;;;0.30;0.30;;;;;;;7.04;100.00;97411.44;5047476;28;20492;-59
2024/03/30 02:08:22;;;;;;;0.30;0.30;;;;;;;7.12;100.00;97415.44;5048305;28;20556;-60
2024/03/30 02:10:48;;;;;;;0.30;0.30;;;;;;;7.13;100.00;97411.69;5057799;28;20048;-60
2024/03/30 02:13:15;;;;;;;0.30;0.30;;;;;;;7.27;100.00;97407.44;5055971;28;20049;-60
2024/03/30 02:15:41;;;;;;;0.40;0.40;;;;;;;7.26;100.00;97405.88;5051583;28;20045;-59
2024/03/30 02:18:08;;;;;;;0.30;0.30;;;;;;;7.22;100.00;97393.34;5053340;28;20083;-59
2024/03/30 02:20:34;;;;;;;0.20;0.20;;;;;;;7.22;100.00;97388.78;5057445;28;20052;-60
2024/03/30 02:23:01;;;;;;;0.25;0.25;;;;;;;7.13;100.00;97385.84;5058737;28;20040;-58
2024/03/30 02:25:28;;;;;;;0.30;0.30;;;;;;;7.07;100.00;97389.56;5057290;28;20079;-59
2024/03/30 02:27:55;;;;;;;0.30;0.30;;;;;;;6.94;100.00;97382.09;5056672;28;20072;-59
2024/03/30 02:30:22;;;;;;;0.52;0.52;;;;;;;6.93;100.00;97375.16;5055452;28;20033;-59
2024/03/30 02:32:50;;;;;;;0.55;0.55;;;;;;;6.95;100.00;97373.03;5060583;28;20079;-59
2024/03/30 02:35:19;;;;;;;0.30;0.30;;;;;;;6.93;100.00;97375.16;5060691;28;20082;-59
2024/03/30 02:37:46;;;;;;;0.30;0.30;;;;;;;6.87;100.00;97366.38;5082499;28;20053;-60
2024/03/30 02:40:13;;;;;;;0.30;0.30;;;;;;;6.87;100.00;97365.59;5052104;28;20041;-60
2024/03/30 02:42:41;;;;;;;1.20;1.17;;;;;;;6.72;100.00;97358.34;5055633;28;20032;-59
2024/03/30 02:45:08;;;;;;;0.60;0.60;;;;;;;6.72;100.00;97362.88;5057059;28;20049;-60
2024/03/30 02:47:35;;;;;;;1.20;1.10;;;;;;;6.79;100.00;97363.41;5055654;28;20060;-59
2024/03/30 02:50:01;;;;;;;1.08;1.00;;;;;;;6.63;100.00;97366.03;5057729;28;20095;-60
2024/03/30 02:52:28;;;;;;;0.90;0.90;;;;;;;6.88;100.00;97367.16;5052289;28;20048;-60
2024/03/30 02:54:54;;;;;;;1.00;1.00;;;;;;;6.72;100.00;97362.88;5056812;28;20037;-59
2024/03/30 02:57:21;;;;;;;0.80;0.80;;;;;;;6.72;100.00;97369.00;5052454;28;20048;-60
2024/03/30 02:59:48;;;;;;;0.65;0.65;;;;;;;6.74;100.00;97358.91;5052826;28;20059;-60
2024/03/30 03:02:15;;;;;;;0.60;0.60;;;;;;;6.59;100.00;97362.31;5058453;28;20099;-59
2024/03/30 03:04:41;;;;;;;0.40;0.40;;;;;;;6.56;100.00;97367.34;5062412;28;20083;-59
2024/03/30 03:07:08;;;;;;;0.28;0.28;;;;;;;6.43;100.00;97373.97;5057561;28;20052;-59
2024/03/30 03:09:35;;;;;;;0.30;0.30;;;;;;;6.20;100.00;97364.56;5060854;28;20082;-59
2024/03/30 03:12:02;;;;;;;0.30;0.30;;;;;;;6.17;100.00;97362.44;5057927;28;20040;-60
2024/03/30 03:14:28;;;;;;;0.30;0.30;;;;;;;6.32;100.00;97367.03;5053872;28;20048;-59
2024/03/30 03:16:57;;;;;;;0.40;0.40;;;;;;;6.36;100.00;97370.75;5050758;28;20045;-59
2024/03/30 03:19:23;;;;;;;0.65;0.65;;;;;;;6.28;100.00;97364.06;5052482;28;20052;-59
2024/03/30 03:21:50;;;;;;;0.75;0.75;;;;;;;6.21;100.00;97358.97;5057554;28;20048;-60
2024/03/30 03:24:16;;;;;;;0.93;0.93;;;;;;;6.01;100.00;97357.00;5060363;28;20558;-59
2024/03/30 03:26:43;;;;;;;0.75;0.75;;;;;;;6.04;100.00;97363.69;5053713;28;20091;-60
2024/03/30 03:29:10;;;;;;;0.60;0.60;;;;;;;6.27;100.00;97357.16;5053374;28;20051;-59
2024/03/30 03:31:37;;;;;;;0.68;0.68;;;;;;;6.29;100.00;97355.03;5052513;28;20372;-59
2024/03/30 03:34:04;;;;;;;0.70;0.70;;;;;;;6.31;100.00;97352.91;5054457;28;20052;-59
2024/03/30 03:36:31;;;;;;;0.80;0.80;;;;;;;6.40;100.00;97351.34;5078300;28;20045;-60
2024/03/30 03:38:57;;;;;;;0.43;0.43;;;;;;;6.61;100.00;97352.19;5048115;28;20446;-59
2024/03/30 03:41:24;;;;;;;0.82;0.82;;;;;;;6.64;100.00;97348.19;5060306;28;20041;-60
2024/03/30 03:43:50;;;;;;;0.73;0.73;;;;;;;6.65;100.00;97347.16;5052753;28;20047;-60
2024/03/30 03:46:17;;;;;;;1.00;1.00;;;;;;;6.58;100.00;97347.41;5052294;28;20411;-60
2024/03/30 03:48:43;;;;;;;0.47;0.47;;;;;;;6.71;100.00;97351.41;5057310;28;20048;-59
2024/03/30 03:51:13;;;;;;;0.55;0.55;;;;;;;6.47;100.00;97337.81;5056150;28;20396;-59
2024/03/30 03:53:39;;;;;;;0.60;0.60;;;;;;;6.46;100.00;97349.50;5055478;28;20402;-59
2024/03/30 03:56:06;;;;;;;0.75;0.75;;;;;;;6.30;100.00;97345.19;5054452;28;20036;-59
2024/03/30 03:58:32;;;;;;;0.80;0.80;;;;;;;6.26;100.00;97350.22;5051737;28;20454;-59
2024/03/30 04:01:04;;;;;;;0.80;0.80;;;;;;;6.24;100.00;97350.50;5054610;28;20067;-60
2024/03/30 04:03:30;;;;;;;0.60;0.60;;;;;;;6.16;100.00;97343.00;5054937;28;20399;-59
2024/03/30 04:05:57;;;;;;;0.73;0.73;;;;;;;5.95;100.00;97346.63;5059150;28;20049;-59
2024/03/30 04:08:24;;;;;;;0.43;0.43;;;;;;;5.87;100.00;97347.88;5055223;28;20044;-60
2024/03/30 04:11:00;;;;;;;0.68;0.68;;;;;;;6.00;100.00;97349.31;5049592;28;20048;-59
2024/03/30 04:13:27;;;;;;;0.75;0.75;;;;;;;6.00;100.00;97355.44;5054129;28;20559;-60
2024/03/30 04:15:54;;;;;;;0.82;0.82;;;;;;;6.05;100.00;97350.13;5050852;28;20890;-60
2024/03/30 04:18:20;;;;;;;0.60;0.60;;;;;;;6.02;100.00;97357.84;5048215;28;20048;-60
2024/03/30 04:20:58;;;;;;;0.50;0.50;;;;;;;6.01;100.00;97361.53;5047254;28;20048;-61
2024/03/30 04:23:28;;;;;;;0.60;0.60;;;;;;;6.12;100.00;97351.78;5059040;28;20469;-60
2024/03/30 04:26:03;;;;;;;0.40;0.40;;;;;;;6.00;100.00;97352.78;5050938;28;20041;-59
2024/03/30 04:28:29;;;;;;;0.50;0.50;;;;;;;6.08;100.00;97356.00;5057193;28;20056;-59
2024/03/30 04:30:56;;;;;;;0.40;0.40;;;;;;;6.19;100.00;97354.97;5052858;28;20045;-60
2024/03/30 04:33:22;;;;;;;0.50;0.50;;;;;;;6.21;100.00;97352.84;5048202;28;20045;-59
2024/03/30 04:35:56;;;;;;;0.50;0.50;;;;;;;6.23;100.00;97356.84;5058581;28;20113;-60
2024/03/30 04:38:23;;;;;;;0.57;0.57;;;;;;;6.18;100.00;97354.19;5050087;28;20049;-60
2024/03/30 04:41:01;;;;;;;0.55;0.55;;;;;;;6.26;100.00;97367.00;5053608;28;20044;-60
2024/03/30 04:43:28;;;;;;;0.63;0.63;;;;;;;6.33;100.00;97363.28;5055681;28;20139;-59
2024/03/30 04:45:54;;;;;;;0.65;0.65;;;;;;;6.26;100.00;97361.69;5052128;28;20045;-59
2024/03/30 04:48:21;;;;;;;0.70;0.70;;;;;;;6.05;100.00;97354.66;5049089;28;20462;-59
2024/03/30 04:50:47;;;;;;;0.40;0.40;;;;;;;6.17;100.00;97357.91;5050133;28;20076;-59
2024/03/30 04:53:17;;;;;;;0.40;0.40;;;;;;;6.37;100.00;97356.41;5050489;28;20079;-59
2024/03/30 04:55:52;;;;;;;0.40;0.40;;;;;;;6.41;100.00;97346.81;5057137;28;20744;-59
2024/03/30 04:58:21;;;;;;;0.40;0.40;;;;;;;6.33;100.00;97352.66;5053798;28;20045;-59
2024/03/30 05:00:48;;;;;;;0.40;0.40;;;;;;;6.31;100.00;97354.75;5051718;28;20119;-59
2024/03/30 05:03:15;;;;;;;0.50;0.50;;;;;;;6.18;100.00;97348.84;5051258;28;20125;-59
2024/03/30 05:05:42;;;;;;;0.40;0.40;;;;;;;6.30;100.00;97337.22;5054932;28;20787;-60
2024/03/30 05:08:09;;;;;;;0.40;0.40;;;;;;;6.29;100.00;97352.38;5054454;28;20052;-59
2024/03/30 05:10:35;;;;;;;0.40;0.40;;;;;;;6.42;100.00;97351.09;5055688;28;20103;-60
2024/03/30 05:13:04;;;;;;;0.50;0.50;;;;;;;6.47;100.00;97351.09;5053688;28;20041;-60
2024/03/30 05:15:32;;;;;;;0.50;0.50;;;;;;;6.52;100.00;97343.13;5046264;28;20045;-59
2024/03/30 05:17:59;;;;;;;0.32;0.32;;;;;;;6.37;100.00;97341.22;5055870;28;20063;-59
2024/03/30 05:23:12;;;;;;;0.63;0.63;;;;;;;6.55;100.00;97344.47;5046894;28;20033;-60
2024/03/30 05:25:40;;;;;;;0.80;0.70;;;;;;;6.41;100.00;97346.81;5048712;28;20399;-60
2024/03/30 05:28:07;;;;;;;0.88;0.88;;;;;;;6.37;100.00;97340.44;5054170;28;20435;-59
2024/03/30 05:30:35;;;;;;;0.90;0.90;;;;;;;6.09;100.00;97334.47;5055716;28;20065;-60
2024/03/30 05:33:02;;;;;;;0.60;0.60;;;;;;;6.29;100.00;97335.59;5050962;28;20051;-59
2024/03/30 05:35:28;;;;;;;0.70;0.70;;;;;;;6.41;100.00;97336.16;5048928;28;20037;-60
2024/03/30 05:37:56;;;;;;;0.70;0.70;;;;;;;6.43;100.00;97339.38;5056364;28;20047;-59
2024/03/30 05:40:22;;;;;;;0.60;0.60;;;;;;;6.45;100.00;97329.28;5048312;28;20572;-59
2024/03/30 05:42:49;;;;;;;0.65;0.65;;;;;;;6.42;100.00;97327.13;5052755;28;20514;-60
2024/03/30 05:45:15;;;;;;;1.10;1.10;;;;;;;6.42;100.00;97327.94;5047832;28;20048;-60
2024/03/30 05:47:44;;;;;;;0.70;0.70;;;;;;;6.48;100.00;97331.41;5052284;28;20060;-60
2024/03/30 05:50:10;;;;;;;1.02;1.02;;;;;;;6.47;100.00;97335.94;5047043;28;20053;-59
2024/03/30 05:52:37;;;;;;;0.88;0.88;;;;;;;6.52;100.00;97340.47;5050972;28;20049;-59
2024/03/30 05:55:04;;;;;;;0.70;0.70;;;;;;;6.58;100.00;97331.44;5052104;28;20032;-60
2024/03/30 05:57:31;;;;;;;1.05;1.05;;;;;;;6.51;100.00;97320.22;5078022;28;20140;-59
2024/03/30 05:59:57;;;;;;;0.98;0.98;;;;;;;6.72;100.00;97322.97;5051307;28;20048;-60
2024/03/30 06:02:25;;;;;;;1.23;1.13;;;;;;;6.78;100.00;97321.88;5048115;28;20047;-59
2024/03/30 06:04:52;;;;;;;1.13;1.02;;;;;;;6.81;100.00;97329.34;5047819;28;20048;-59
2024/03/30 06:07:19;;;;;;;0.90;0.90;;;;;;;6.79;100.00;97326.97;5055401;28;20040;-60
2024/03/30 06:09:45;;;;;;;0.90;0.90;;;;;;;6.74;100.00;97323.47;5049620;28;20719;-59
2024/03/30 06:12:12;;;;;;;0.40;0.40;;;;;;;6.92;100.00;97330.97;5049282;28;20052;-59
2024/03/30 06:14:39;;;;;;;1.30;1.20;;;;;;;6.94;100.00;97338.66;5048451;28;20056;-59
2024/03/30 06:17:06;;;;;;;1.17;1.08;;;;;;;6.79;100.00;97326.13;5048345;28;20054;-59
2024/03/30 06:19:32;;;;;;;0.70;0.70;;;;;;;6.96;100.00;97325.91;5054392;28;20131;-61
2024/03/30 06:22:00;;;;;;;1.13;1.02;;;;;;;6.74;100.00;97323.47;5057171;28;20044;-60
2024/03/30 06:24:26;;;;;;;1.17;1.08;;;;;;;6.51;100.00;97335.41;5051413;28;20128;-60
2024/03/30 06:26:53;;;;;;;0.70;0.70;;;;;;;6.97;100.00;97349.63;5048041;28;20056;-59
2024/03/30 06:29:19;;;;;;;0.65;0.65;;;;;;;6.98;100.00;97350.41;5050493;28;20049;-59
2024/03/30 06:31:46;;;;;;;0.85;0.85;;;;;;;7.05;100.00;97349.09;5054907;28;20032;-59
2024/03/30 06:34:12;;;;;;;1.10;1.10;;;;;;;7.13;100.00;97369.84;5050273;28;20130;-59
2024/03/30 06:36:39;;;;;;;1.45;1.30;;;;;;;6.79;100.00;97353.59;5042234;28;20098;-59
2024/03/30 06:39:07;;;;;;;0.90;0.90;;;;;;;7.11;100.00;97361.34;5054308;28;20048;-59
2024/03/30 06:44:18;;;;;;;0.70;0.70;;;;;;;7.25;100.00;97358.16;5051051;28;20690;-59
2024/03/30 06:46:45;;;;;;;0.70;0.70;;;;;;;7.40;100.00;97358.16;5057666;28;20048;-60
2024/03/30 06:49:12;;;;;;;0.80;0.80;;;;;;;7.42;100.00;97349.91;5051805;28;20858;-59
2024/03/30 06:51:39;;;;;;;0.45;0.45;;;;;;;7.55;100.00;97360.81;5054885;28;20055;-60
2024/03/30 06:54:08;;;;;;;1.00;1.00;;;;;;;7.60;100.00;97357.34;5056823;28;20125;-60
2024/03/30 06:56:34;;;;;;;0.60;0.60;;;;;;;7.63;100.00;97367.47;5046573;28;20110;-59
2024/03/30 06:59:01;;;;;;;0.70;0.70;;;;;;;7.47;100.00;97366.69;5062270;28;20052;-59
2024/03/30 07:01:27;;;;;;;0.60;0.60;;;;;;;7.66;100.00;97368.78;5056590;28;20051;-59
2024/03/30 07:03:54;;;;;;;0.63;0.63;;;;;;;7.58;100.00;97375.47;5057058;28;20113;-59
2024/03/30 07:06:21;;;;;;;0.77;0.77;;;;;;;7.38;100.00;97380.81;5051882;28;20068;-59
2024/03/30 07:08:48;;;;;;;0.60;0.60;;;;;;;7.50;100.00;97373.34;5054551;28;20048;-60
2024/03/30 07:11:17;;;;;;;0.40;0.40;;;;;;;7.07;100.00;97370.94;5059513;28;20044;-59
2024/03/30 07:13:44;;;;;;;0.40;0.40;;;;;;;7.36;100.00;97370.41;5060448;28;20072;-59
2024/03/30 07:16:10;;;;;;;0.30;0.30;;;;;;;7.42;100.00;97380.00;5058515;28;20146;-59
2024/03/30 07:18:38;;;;;;;0.40;0.40;;;;;;;7.85;100.00;97382.38;5059589;28;20131;-58
2024/03/30 07:21:04;;;;;;;0.20;0.20;;;;;;;8.37;100.00;97378.50;5062553;28;20045;-59
2024/03/30 07:23:32;;;;;;;0.20;0.20;;;;;;;8.76;100.00;97377.78;5057402;28;20053;-59
2024/03/30 07:26:02;;;;;;;0.40;0.40;;;;;;;9.13;100.00;97382.63;5058907;28;20052;-59
2024/03/30 07:28:31;;;;;;;0.30;0.30;;;;;;;9.55;100.00;97383.94;5057694;28;20041;-59
2024/03/30 07:31:03;;;;;;;0.30;0.30;;;;;;;9.58;100.00;97378.00;5057979;28;20530;-59
2024/03/30 07:33:30;;;;;;;0.28;0.28;;;;;;;9.97;100.00;97379.81;5054544;28;20178;-59
2024/03/30 07:35:56;;;;;;;0.30;0.30;;;;;;;10.03;100.00;97389.38;5051809;28;20049;-59
2024/03/30 07:38:27;;;;;;;0.20;0.20;;;;;;;10.07;100.00;97379.69;5047134;28;20911;-59
2024/03/30 07:40:53;;;;;;;0.20;0.20;;;;;;;9.96;100.00;97382.75;5057489;28;20049;-59
2024/03/30 07:43:20;;;;;;;0.20;0.20;;;;;;;10.00;100.00;97387.25;5057551;28;20189;-60
2024/03/30 07:45:48;;;;;;;0.20;0.20;;;;;;;9.80;100.00;97387.47;5055504;28;20538;-59
2024/03/30 07:48:15;;;;;;;0.20;0.20;;;;;;;9.72;100.00;97389.66;5053622;28;20045;-59
2024/03/30 07:50:41;;;;;;;0.20;0.20;;;;;;;9.72;100.00;97392.34;5050460;28;20940;-59
2024/03/30 07:53:08;;;;;;;0.20;0.20;;;;;;;9.83;100.00;97394.91;5058282;28;20559;-59
2024/03/30 07:55:34;;;;;;;0.22;0.22;;;;;;;10.41;100.00;97394.91;5054815;28;20045;-59
2024/03/30 07:58:04;;;;;;;0.20;0.20;;;;;;;10.58;100.00;97392.53;5049420;28;20400;-59
2024/03/30 08:00:30;;;;;;;0.28;0.28;;;;;;;10.66;100.00;97374.22;5051799;28;20817;-59
2024/03/30 08:03:01;;;;;;;0.30;0.30;;;;;;;10.90;100.00;97380.31;5052633;28;20049;-59
2024/03/30 08:05:27;;;;;;;0.20;0.20;;;;;;;11.23;100.00;97377.69;5050246;28;20099;-59
2024/03/30 08:07:55;;;;;;;0.20;0.20;;;;;;;12.01;100.00;97386.13;5046922;28;20048;-59
2024/03/30 08:10:23;;;;;;;0.20;0.20;;;;;;;12.03;100.00;97379.38;5052103;28;20065;-59
2024/03/30 08:12:50;;;;;;;0.30;0.30;;;;;;;13.00;100.00;97363.13;5055499;28;20040;-59
2024/03/30 08:15:16;;;;;;;0.15;0.15;;;;;;;13.16;100.00;97366.28;5054496;28;20041;-59
2024/03/30 08:17:43;;;;;;;0.10;0.10;;;;;;;12.97;100.00;97363.75;5056351;28;20052;-59
2024/03/30 08:20:11;;;;;;;0.20;0.20;;;;;;;13.13;100.00;97351.56;5056572;28;20048;-59
2024/03/30 08:22:38;;;;;;;0.20;0.20;;;;;;;13.15;100.00;97362.81;5058739;28;20127;-59
2024/03/30 08:25:04;;;;;;;0.20;0.20;;;;;;;13.69;100.00;97341.34;5054126;28;20041;-59
2024/03/30 08:27:33;;;;;;;0.17;0.17;;;;;;;14.13;100.00;97341.56;5056751;28;20045;-59
2024/03/30 08:29:59;;;;;;;0.10;0.10;;;;;;;13.83;98.43;97354.72;5058024;28;20076;-60
2024/03/30 08:32:26;;;;;;;0.20;0.20;;;;;;;13.73;100.00;97363.06;5058008;28;20048;-59
2024/03/30 08:34:53;;;;;;;0.20;0.20;;;;;;;13.82;100.00;97377.34;5052408;28;20045;-59
2024/03/30 08:37:22;;;;;;;0.10;0.10;;;;;;;13.42;100.00;97374.56;5056120;28;20060;-59
2024/03/30 08:39:48;;;;;;;0.20;0.20;;;;;;;12.72;100.00;97386.59;5052063;28;20075;-59
2024/03/30 08:42:15;;;;;;;0.10;0.10;;;;;;;12.36;100.00;97381.97;5060298;28;20905;-59
2024/03/30 08:44:41;;;;;;;0.10;0.10;;;;;;;12.12;100.00;97389.41;5059101;28;20049;-59
2024/03/30 08:47:09;;;;;;;0.10;0.10;;;;;;;12.32;100.00;97401.66;5056576;28;20036;-59
2024/03/30 08:49:35;;;;;;;0.10;0.10;;;;;;;12.47;100.00;97387.91;5055214;28;20132;-59
2024/03/30 08:52:02;;;;;;;0.10;0.10;;;;;;;12.52;100.00;97401.25;5053141;28;20076;-59
2024/03/30 08:54:29;;;;;;;0.10;0.10;;;;;;;12.41;100.00;97394.50;5059138;28;20480;-59
2024/03/30 08:56:56;;;;;;;0.15;0.15;;;;;;;12.59;100.00;97379.38;5054567;28;20044;-59
2024/03/30 08:59:23;;;;;;;0.20;0.20;;;;;;;12.95;100.00;97372.13;5057080;28;20131;-59
2024/03/30 09:01:50;;;;;;;0.10;0.10;;;;;;;12.60;100.00;97387.09;5053353;28;20124;-59
2024/03/30 09:04:18;;;;;;;0.20;0.20;;;;;;;12.11;100.00;97385.94;5056028;28;20499;-59
2024/03/30 09:06:45;;;;;;;0.10;0.10;;;;;;;11.90;100.00;97390.06;5053851;28;20608;-59
2024/03/30 09:09:11;;;;;;;0.15;0.15;;;;;;;12.06;100.00;97388.72;5056777;28;20056;-59
2024/03/30 09:11:40;;;;;;;0.20;0.20;;;;;;;12.33;100.00;97398.69;5056709;28;20055;-59
2024/03/30 09:14:06;;;;;;;0.13;0.13;;;;;;;12.46;100.00;97386.34;5054766;28;20217;-59
2024/03/30 09:16:33;;;;;;;0.10;0.10;;;;;;;12.60;100.00;97392.47;5051816;28;20041;-58
2024/03/30 09:18:59;;;;;;;0.20;0.20;;;;;;;12.43;100.00;97397.66;5049339;28;20056;-59
2024/03/30 09:21:26;;;;;;;0.20;0.20;;;;;;;12.81;100.00;97392.88;5055494;28;20059;-59
2024/03/30 09:23:54;;;;;;;0.10;0.10;;;;;;;13.27;100.00;97391.88;5055323;28;20078;-59
2024/03/30 09:26:21;;;;;;;0.20;0.20;;;;;;;13.08;100.00;97402.78;5053434;28;20037;-59
2024/03/30 09:28:49;;;;;;;0.20;0.20;;;;;;;13.02;100.00;97398.59;5050310;28;20034;-59
2024/03/30 09:31:16;;;;;;;0.10;0.10;;;;;;;13.11;100.00;97401.38;5054350;28;20048;-59
2024/03/30 09:33:42;;;;;;;0.20;0.20;;;;;;;13.21;100.00;97406.53;5052816;28;20049;-59
2024/03/30 09:36:11;;;;;;;0.20;0.20;;;;;;;13.49;100.00;97399.16;5051768;28;20041;-59
2024/03/30 09:38:38;;;;;;;0.20;0.20;;;;;;;13.80;100.00;97406.47;5054575;28;20036;-59
2024/03/30 09:41:05;;;;;;;0.08;0.08;;;;;;;13.92;100.00;97404.03;5057855;28;20037;-59
2024/03/30 09:43:31;;;;;;;0.10;0.10;;;;;;;13.90;100.00;97395.44;5055383;28;20048;-59
2024/03/30 09:46:00;;;;;;;0.10;0.10;;;;;;;14.21;100.00;97394.66;5056733;28;20040;-59
2024/03/30 09:48:26;;;;;;;0.10;0.10;;;;;;;14.35;100.00;97398.06;5054886;28;20118;-59
2024/03/30 09:50:53;;;;;;;0.10;0.10;;;;;;;14.20;100.00;97404.66;5058206;28;20040;-59
2024/03/30 09:53:19;;;;;;;0.00;0.00;;;;;;;14.59;100.00;97407.69;5055566;28;20811;-59
2024/03/30 09:55:47;;;;;;;0.20;0.20;;;;;;;14.51;100.00;97403.81;5055478;28;20133;-59
2024/03/30 09:58:13;;;;;;;0.10;0.10;;;;;;;14.34;100.00;97409.16;5050817;28;20053;-59
2024/03/30 10:00:41;;;;;;;0.10;0.10;;;;;;;14.02;100.00;97411.84;5046783;28;20049;-59
2024/03/30 10:03:08;;;;;;;0.10;0.10;;;;;;;13.76;100.00;97421.69;5050687;28;20052;-59
2024/03/30 10:05:36;;;;;;;0.13;0.13;;;;;;;14.11;100.00;97421.88;5051205;28;20041;-59
2024/03/30 10:08:03;;;;;;;0.10;0.10;;;;;;;14.32;100.00;97420.22;5055717;28;20041;-59
2024/03/30 10:10:30;;;;;;;0.10;0.10;;;;;;;14.45;100.00;97424.72;5058142;28;20040;-59
2024/03/30 10:13:00;;;;;;;0.10;0.10;;;;;;;14.22;100.00;97423.97;5056825;28;20538;-59
2024/03/30 10:15:29;;;;;;;0.10;0.10;;;;;;;14.09;100.00;97429.47;5055726;28;20131;-59
2024/03/30 10:17:55;;;;;;;0.05;0.05;;;;;;;14.13;100.00;97431.25;5052421;28;20131;-59
2024/03/30 10:20:24;;;;;;;0.08;0.08;;;;;;;14.59;100.00;97435.41;5055157;28;20408;-59
2024/03/30 10:22:50;;;;;;;0.10;0.10;;;;;;;14.48;100.00;97438.66;5051593;28;20138;-59
2024/03/30 10:25:17;;;;;;;0.10;0.10;;;;;;;14.70;100.00;97429.75;5056129;28;20518;-59
2024/03/30 10:27:45;;;;;;;0.10;0.10;;;;;;;14.09;100.00;97434.88;5048425;28;20127;-59
2024/03/30 10:30:13;;;;;;;0.10;0.10;;;;;;;14.12;100.00;97435.03;5054609;28;20041;-59
2024/03/30 10:32:39;;;;;;;0.10;0.10;;;;;;;13.79;100.00;97431.81;5045056;28;20118;-59
2024/03/30 10:35:08;;;;;;;0.10;0.10;;;;;;;13.35;100.00;97433.41;5062250;28;20029;-59
2024/03/30 10:37:35;;;;;;;0.03;0.03;;;;;;;13.34;100.00;97437.19;5050828;28;20102;-59
2024/03/30 10:40:06;;;;;;;0.10;0.10;;;;;;;13.76;100.00;97437.84;5061134;28;20114;-59
2024/03/30 10:42:31;;;;;;;;;;;;;;;13.93;100.00;97435.25;5051360;28;20044;-59
2024/03/30 10:45:01;;;;;;;0.10;0.10;;;;;;;13.99;100.00;97436.69;5051856;28;20401;-59
2024/03/30 10:47:28;;;;;;;0.00;0.00;;;;;;;13.37;100.00;97442.75;5059062;28;20499;-59
2024/03/30 10:49:55;;;;;;;0.10;0.10;;;;;;;13.21;100.00;97440.69;5055916;28;20051;-58
2024/03/30 10:52:21;;;;;;;0.10;0.10;;;;;;;13.43;100.00;97451.53;5063495;28;20548;-58
2024/03/30 10:54:49;;;;;;;0.13;0.13;;;;;;;13.45;100.00;97454.69;5054271;28;20041;-59
2024/03/30 10:57:15;;;;;;;0.20;0.20;;;;;;;12.73;100.00;97452.72;5047091;28;20061;-59
2024/03/30 10:59:45;;;;;;;0.10;0.10;;;;;;;11.85;100.00;97447.28;5056793;28;20395;-58
2024/03/30 11:02:15;;;;;;;0.10;0.10;;;;;;;12.52;100.00;97442.34;5064447;28;20045;-59
2024/03/30 11:04:42;;;;;;;0.10;0.10;;;;;;;13.05;100.00;97446.38;5060589;28;20662;-59
2024/03/30 11:07:08;;;;;;;0.10;0.10;;;;;;;13.48;100.00;97442.50;5050610;28;20325;-59
2024/03/30 11:09:37;;;;;;;0.30;0.30;;;;;;;13.44;100.00;97441.56;5054693;28;20580;-58
2024/03/30 11:12:05;;;;;;;0.17;0.17;;;;;;;13.58;100.00;97443.09;5058693;28;20036;-58
2024/03/30 11:14:32;;;;;;;0.17;0.17;;;;;;;12.95;100.00;97442.03;5057149;28;20090;-59
2024/03/30 11:16:58;;;;;;;0.20;0.20;;;;;;;14.10;100.00;97447.22;5046732;28;20056;-59
2024/03/30 11:19:25;;;;;;;0.20;0.20;;;;;;;14.31;100.00;97436.72;5057504;28;20048;-58
2024/03/30 11:21:52;;;;;;;0.20;0.20;;;;;;;14.22;100.00;97436.66;5054096;28;20555;-58
2024/03/30 11:24:19;;;;;;;0.10;0.10;;;;;;;14.26;100.00;97455.72;5052986;28;20135;-58
2024/03/30 11:26:49;;;;;;;0.20;0.20;;;;;;;14.15;100.00;97453.28;5051334;28;20045;-58
2024/03/30 11:29:26;;;;;;;0.13;0.13;;;;;;;13.77;100.00;97466.34;5050504;28;20044;-58
2024/03/30 11:31:53;;;;;;;0.10;0.10;;;;;;;14.02;100.00;97473.00;5052350;28;20512;-58
2024/03/30 11:34:24;;;;;;;0.10;0.10;;;;;;;14.27;100.00;97463.47;5084783;28;20044;-58
2024/03/30 11:36:53;;;;;;;0.10;0.10;;;;;;;14.65;100.00;97468.41;5054617;28;20051;-58